Time;durP1;ratioP1;P1;durP2;ratioP2;P2;SDS_P1;SDS_P2;PMS_P1;PMS_P2;Temp;Humidity;BMP_temperature;BMP_pressure;BME280_temperature;BME280_humidity;BME280_pressure;Samples;Min_cycle;Max_cycle;Signal;HPM_P1;HPM_P2
2021/12/02 00:01:20;;;;;;;13.63;4.63;;;;;;;4.01;100.00;99562.38;5032614;28;20059;-78
2021/12/02 00:03:47;;;;;;;15.20;4.22;;;;;;;4.00;100.00;99557.97;5050166;28;20017;-78
2021/12/02 00:06:14;;;;;;;11.93;4.38;;;;;;;3.97;100.00;99559.34;5037930;28;20064;-78
2021/12/02 00:08:39;;;;;;;14.30;4.28;;;;;;;3.95;100.00;99564.28;5077206;28;20028;-78
2021/12/02 00:11:05;;;;;;;13.63;4.22;;;;;;;3.94;100.00;99579.13;5028951;28;20025;-78
2021/12/02 00:13:41;;;;;;;11.90;4.13;;;;;;;3.92;100.00;99583.25;5044080;28;20043;-77
2021/12/02 00:16:19;;;;;;;11.77;4.30;;;;;;;3.90;100.00;99599.16;5056630;28;20025;-78
2021/12/02 00:21:19;;;;;;;9.40;3.83;;;;;;;3.88;100.00;99593.97;5055849;28;20036;-78
2021/12/02 00:23:52;;;;;;;10.40;3.63;;;;;;;3.89;100.00;99603.03;5075655;28;20036;-79
2021/12/02 00:26:19;;;;;;;8.90;3.60;;;;;;;3.86;100.00;99606.31;5066639;28;20587;-78
2021/12/02 00:28:44;;;;;;;8.57;3.13;;;;;;;3.85;100.00;99611.00;5043910;28;20132;-78
2021/12/02 00:31:17;;;;;;;10.48;3.20;;;;;;;3.83;100.00;99601.38;5056008;28;20032;-78
2021/12/02 00:33:49;;;;;;;9.57;3.10;;;;;;;3.84;100.00;99614.81;5045790;28;20036;-78
2021/12/02 00:36:15;;;;;;;10.05;3.20;;;;;;;3.84;100.00;99612.06;5060407;28;20028;-78
2021/12/02 00:38:41;;;;;;;12.38;3.40;;;;;;;3.87;100.00;99618.94;5041193;28;20036;-78
2021/12/02 00:41:17;;;;;;;9.30;3.10;;;;;;;3.87;100.00;99622.50;5022998;28;20037;-78
2021/12/02 00:43:44;;;;;;;11.85;3.28;;;;;;;3.91;100.00;99620.06;5059051;28;20041;-78
2021/12/02 00:46:11;;;;;;;9.77;3.38;;;;;;;3.90;100.00;99618.41;5027856;28;20024;-78
2021/12/02 00:48:37;;;;;;;8.07;3.33;;;;;;;3.91;100.00;99617.31;5041599;28;20032;-78
2021/12/02 00:51:03;;;;;;;12.73;4.05;;;;;;;3.93;100.00;99631.63;5067870;28;20107;-78
2021/12/02 00:53:29;;;;;;;10.55;3.63;;;;;;;3.98;100.00;99637.09;5056048;28;20391;-78
2021/12/02 00:55:54;;;;;;;13.70;3.78;;;;;;;3.94;100.00;99636.00;5037076;28;20036;-78
2021/12/02 00:58:23;;;;;;;9.82;4.03;;;;;;;3.96;100.00;99639.31;5064999;28;20028;-78
2021/12/02 01:00:50;;;;;;;12.90;3.53;;;;;;;4.03;100.00;99650.84;5082191;28;20130;-78
2021/12/02 01:03:16;;;;;;;14.07;3.88;;;;;;;4.03;100.00;99650.84;5042904;28;20021;-78
2021/12/02 01:05:42;;;;;;;14.15;4.15;;;;;;;4.02;100.00;99647.28;5062487;28;20032;-78
2021/12/02 01:08:11;;;;;;;14.52;3.55;;;;;;;4.05;100.00;99645.09;5034281;28;20036;-78
2021/12/02 01:10:37;;;;;;;15.88;3.33;;;;;;;4.07;100.00;99645.63;5082307;28;20020;-79
2021/12/02 01:13:02;;;;;;;13.73;3.50;;;;;;;4.07;100.00;99656.63;5083930;28;20665;-78
2021/12/02 01:15:28;;;;;;;12.02;3.13;;;;;;;4.11;100.00;99655.00;5050221;28;20496;-78
2021/12/02 01:17:53;;;;;;;15.93;3.47;;;;;;;4.10;100.00;99658.84;5079602;28;20036;-79
2021/12/02 01:20:19;;;;;;;12.90;2.92;;;;;;;4.11;100.00;99658.56;5062122;28;20107;-78
2021/12/02 01:22:45;;;;;;;13.07;4.07;;;;;;;4.12;100.00;99659.38;5061205;28;20567;-78
2021/12/02 01:25:10;;;;;;;10.40;2.85;;;;;;;4.14;100.00;99677.25;5078233;28;20024;-77
2021/12/02 01:27:36;;;;;;;14.98;3.65;;;;;;;4.16;100.00;99691.56;5060829;28;20071;-78
2021/12/02 01:30:03;;;;;;;13.73;3.60;;;;;;;4.19;100.00;99690.19;5052395;28;20036;-78
2021/12/02 01:32:33;;;;;;;14.13;3.50;;;;;;;4.17;100.00;99684.94;5050754;28;20032;-78
2021/12/02 01:35:00;;;;;;;12.52;3.65;;;;;;;4.20;100.00;99689.91;5062770;28;20028;-78
2021/12/02 01:37:28;;;;;;;16.80;4.40;;;;;;;4.25;100.00;99703.66;5051394;28;20487;-78
2021/12/02 01:39:53;;;;;;;11.43;3.65;;;;;;;4.27;100.00;99697.91;5047884;28;20033;-78
2021/12/02 01:42:27;;;;;;;7.85;2.83;;;;;;;4.30;100.00;99699.28;5042772;28;20029;-78
2021/12/02 01:44:55;;;;;;;9.70;3.13;;;;;;;4.30;100.00;99708.34;5079755;28;20111;-77
2021/12/02 01:47:23;;;;;;;9.45;3.00;;;;;;;4.34;100.00;99711.38;5045067;28;20477;-78
2021/12/02 01:49:51;;;;;;;5.97;2.83;;;;;;;4.39;100.00;99714.13;5077227;28;20050;-78
2021/12/02 01:52:16;;;;;;;11.95;2.95;;;;;;;4.41;100.00;99712.75;5045457;28;20119;-78
2021/12/02 01:54:44;;;;;;;7.72;2.75;;;;;;;4.46;100.00;99720.19;5040351;28;20071;-78
2021/12/02 01:57:09;;;;;;;13.43;3.53;;;;;;;4.43;100.00;99724.31;5055580;28;20025;-78
2021/12/02 01:59:37;;;;;;;8.27;3.30;;;;;;;4.45;100.00;99727.59;5071942;28;20037;-77
2021/12/02 02:02:05;;;;;;;17.95;3.50;;;;;;;4.46;100.00;99736.69;5035102;28;20044;-78
2021/12/02 02:04:31;;;;;;;11.70;3.28;;;;;;;4.46;100.00;99744.94;5049126;28;20054;-77
2021/12/02 02:07:13;;;;;;;8.35;3.45;;;;;;;4.45;100.00;99755.09;5061513;28;20060;-78
2021/12/02 02:09:38;;;;;;;11.68;4.03;;;;;;;4.48;100.00;99759.22;5046939;28;20031;-78
2021/12/02 02:12:06;;;;;;;5.47;3.15;;;;;;;4.49;100.00;99760.91;5060177;28;20103;-78
2021/12/02 02:14:32;;;;;;;10.05;4.20;;;;;;;4.51;100.00;99779.84;5041976;28;20084;-78
2021/12/02 02:17:00;;;;;;;11.95;5.65;;;;;;;4.54;100.00;99784.81;5067381;28;20564;-78
2021/12/02 02:19:30;;;;;;;13.15;4.40;;;;;;;4.57;100.00;99790.63;5052452;28;20098;-77
2021/12/02 02:21:56;;;;;;;16.42;4.53;;;;;;;4.57;100.00;99790.63;5081116;28;20609;-78
2021/12/02 02:24:22;;;;;;;10.23;4.13;;;;;;;4.59;100.00;99782.06;5082252;28;20075;-78
2021/12/02 02:26:47;;;;;;;12.02;4.10;;;;;;;4.59;100.00;99779.31;5073833;28;20049;-78
2021/12/02 02:29:13;;;;;;;13.57;3.72;;;;;;;4.59;100.00;99796.66;5073546;28;20040;-78
2021/12/02 02:31:41;;;;;;;10.73;3.25;;;;;;;4.60;100.00;99803.81;5074783;28;20025;-78
2021/12/02 02:34:07;;;;;;;13.52;3.47;;;;;;;4.59;100.00;99815.91;5076192;28;20029;-78
2021/12/02 02:36:41;;;;;;;11.40;3.33;;;;;;;4.62;100.00;99826.34;5077245;28;20467;-79
2021/12/02 02:39:07;;;;;;;8.65;2.72;;;;;;;4.57;100.00;99837.38;5032219;28;20044;-78
2021/12/02 02:41:37;;;;;;;12.98;3.35;;;;;;;4.59;100.00;99826.91;5069337;28;20536;-78
2021/12/02 02:44:04;;;;;;;15.63;3.30;;;;;;;4.55;100.00;99834.06;5059441;28;20059;-78
2021/12/02 02:46:29;;;;;;;13.95;2.95;;;;;;;4.56;100.00;99843.13;5060510;28;20028;-79
2021/12/02 02:48:55;;;;;;;12.57;2.60;;;;;;;4.48;100.00;99834.31;5059599;28;20466;-78
2021/12/02 02:51:21;;;;;;;14.93;2.40;;;;;;;4.48;100.00;99839.81;5069611;28;20055;-77
2021/12/02 02:53:54;;;;;;;12.00;2.55;;;;;;;4.43;100.00;99841.69;5042943;28;20029;-79
2021/12/02 02:56:21;;;;;;;11.63;2.33;;;;;;;4.38;100.00;99844.44;5057104;28;20027;-78
2021/12/02 03:04:14;;;;;;;14.25;2.58;;;;;;;4.13;100.00;99867.97;5047284;28;20476;-77
2021/12/02 03:09:11;;;;;;;7.25;2.42;;;;;;;4.02;100.00;99877.25;5052479;28;20025;-79
2021/12/02 03:11:50;;;;;;;7.35;2.33;;;;;;;3.91;100.00;99873.63;5054003;28;20032;-78
2021/12/02 03:14:20;;;;;;;12.48;2.88;;;;;;;3.89;100.00;99874.97;5077224;28;20519;-78
2021/12/02 03:16:46;;;;;;;9.60;2.50;;;;;;;3.88;100.00;99873.34;5051074;28;20053;-78
2021/12/02 03:19:24;;;;;;;14.77;2.85;;;;;;;3.79;100.00;99878.50;5084813;28;20028;-78
2021/12/02 03:21:49;;;;;;;12.20;2.47;;;;;;;3.73;100.00;99883.13;5059483;28;20036;-78
2021/12/02 03:24:15;;;;;;;8.57;2.67;;;;;;;3.65;100.00;99883.63;5040047;28;20046;-78
2021/12/02 03:26:41;;;;;;;13.05;3.22;;;;;;;3.65;100.00;99886.38;5038583;28;20045;-77
2021/12/02 03:29:06;;;;;;;11.32;3.33;;;;;;;3.57;100.00;99890.44;5073268;28;20440;-77
2021/12/02 03:31:32;;;;;;;14.85;3.03;;;;;;;3.52;100.00;99903.28;5039989;28;20072;-79
2021/12/02 03:33:58;;;;;;;9.55;3.17;;;;;;;3.55;100.00;99906.34;5045655;28;20024;-78
2021/12/02 03:36:24;;;;;;;9.93;2.90;;;;;;;3.49;100.00;99920.28;5047094;28;20429;-78
2021/12/02 03:38:49;;;;;;;6.95;2.40;;;;;;;3.45;100.00;99910.91;5066515;28;20733;-78
2021/12/02 03:41:15;;;;;;;9.82;2.92;;;;;;;3.41;100.00;99918.84;5058845;28;20032;-78
2021/12/02 03:43:42;;;;;;;9.18;3.10;;;;;;;3.35;100.00;99933.63;5069493;28;20081;-78
2021/12/02 03:46:11;;;;;;;8.10;3.22;;;;;;;3.31;100.00;99944.25;5052437;28;20028;-78
2021/12/02 03:48:37;;;;;;;9.82;3.45;;;;;;;3.28;100.00;99942.03;5042713;28;20111;-78
2021/12/02 03:51:06;;;;;;;9.07;3.30;;;;;;;3.23;100.00;99942.03;5044005;28;20272;-78
2021/12/02 03:53:32;;;;;;;12.43;3.60;;;;;;;3.17;100.00;99939.47;5075196;28;20051;-78
2021/12/02 03:55:58;;;;;;;10.70;3.55;;;;;;;3.15;100.00;99947.97;5065022;28;20115;-77
2021/12/02 03:58:24;;;;;;;10.07;3.22;;;;;;;3.12;100.00;99954.81;5046321;28;20078;-77
2021/12/02 04:00:49;;;;;;;11.98;3.63;;;;;;;3.08;100.00;99955.56;5040337;28;20460;-78
2021/12/02 04:03:15;;;;;;;14.05;3.33;;;;;;;3.08;100.00;99967.38;5075414;28;20076;-78
2021/12/02 04:05:40;;;;;;;10.68;3.60;;;;;;;3.07;100.00;99962.97;5075377;28;20052;-78
2021/12/02 04:08:06;;;;;;;14.48;3.00;;;;;;;3.02;100.00;99967.59;5059062;28;20040;-78
2021/12/02 04:10:43;;;;;;;9.45;3.25;;;;;;;3.00;100.00;99970.56;5044743;28;20024;-77
2021/12/02 04:13:25;;;;;;;10.27;2.85;;;;;;;2.97;100.00;99976.56;5057384;28;20024;-78
2021/12/02 04:15:56;;;;;;;10.45;3.55;;;;;;;2.95;100.00;99983.41;5045277;28;20059;-78
2021/12/02 04:18:22;;;;;;;11.18;3.05;;;;;;;2.94;100.00;99979.00;5074996;28;20071;-78
2021/12/02 04:20:48;;;;;;;7.28;2.85;;;;;;;2.94;100.00;99976.25;5066121;28;20059;-77
2021/12/02 04:23:13;;;;;;;9.45;2.75;;;;;;;2.93;100.00;99978.19;5047039;28;20036;-78
2021/12/02 04:25:39;;;;;;;10.77;3.05;;;;;;;2.90;100.00;99973.22;5074704;28;20031;-79
2021/12/02 04:28:04;;;;;;;10.93;2.90;;;;;;;2.86;100.00;99967.38;5058535;28;20058;-78
2021/12/02 04:30:30;;;;;;;10.38;2.65;;;;;;;2.85;100.00;99973.97;5079156;28;20107;-77
2021/12/02 04:32:56;;;;;;;13.15;3.22;;;;;;;2.84;100.00;99975.06;5071582;28;20061;-78
2021/12/02 04:35:21;;;;;;;13.73;2.95;;;;;;;2.81;100.00;99977.47;5060002;28;20086;-79
2021/12/02 04:37:51;;;;;;;13.65;3.17;;;;;;;2.77;100.00;99976.34;5044609;28;20024;-78
2021/12/02 04:40:18;;;;;;;9.93;2.90;;;;;;;2.78;100.00;99981.56;5077510;28;20020;-78
2021/12/02 04:42:43;;;;;;;11.73;3.13;;;;;;;2.72;100.00;99977.09;5071605;28;20098;-78
2021/12/02 04:45:09;;;;;;;14.25;2.90;;;;;;;2.76;100.00;99982.88;5069368;28;20036;-78
2021/12/02 04:47:35;;;;;;;8.57;2.13;;;;;;;2.67;100.00;99990.75;5043801;28;20035;-78
2021/12/02 04:50:00;;;;;;;10.25;2.45;;;;;;;2.67;100.00;99983.38;5044913;28;20032;-77
2021/12/02 04:52:26;;;;;;;12.88;2.47;;;;;;;2.62;100.00;99977.81;5061581;28;20032;-78
2021/12/02 04:54:51;;;;;;;8.93;2.33;;;;;;;2.61;100.00;99989.03;5052486;28;20033;-78
2021/12/02 04:57:17;;;;;;;16.00;2.45;;;;;;;2.52;100.00;99998.78;5079480;28;20103;-78
2021/12/02 04:59:42;;;;;;;11.18;2.20;;;;;;;2.58;100.00;100008.72;5059201;28;20037;-78
2021/12/02 05:02:08;;;;;;;10.98;2.28;;;;;;;2.56;100.00;100016.34;5044685;28;20613;-78
2021/12/02 05:04:34;;;;;;;8.43;1.98;;;;;;;2.55;100.00;100014.72;5044527;28;20395;-78
2021/12/02 05:06:59;;;;;;;9.50;1.88;;;;;;;2.51;100.00;100008.06;5079125;28;20040;-78
2021/12/02 05:09:25;;;;;;;17.30;2.50;;;;;;;2.49;100.00;100019.28;5075117;28;20098;-78
2021/12/02 05:11:50;;;;;;;9.48;2.13;;;;;;;2.47;100.00;100018.72;5073776;28;20040;-77
2021/12/02 05:14:16;;;;;;;5.63;1.80;;;;;;;2.46;100.00;100042.56;5058648;28;20028;-77
2021/12/02 05:16:41;;;;;;;8.02;1.95;;;;;;;2.43;100.00;100043.06;5078613;28;20043;-77
2021/12/02 05:19:07;;;;;;;10.27;2.05;;;;;;;2.40;100.00;100032.59;5078745;28;20040;-78
2021/12/02 05:21:33;;;;;;;9.18;2.08;;;;;;;2.37;100.00;100024.88;5042056;28;20805;-78
2021/12/02 05:23:58;;;;;;;12.27;2.38;;;;;;;2.35;100.00;100029.78;5076448;28;20056;-78
2021/12/02 05:26:24;;;;;;;11.88;2.67;;;;;;;2.29;100.00;100047.25;5073785;28;20055;-77
2021/12/02 05:28:50;;;;;;;6.40;1.73;;;;;;;2.28;100.00;100045.56;5072100;28;20045;-78
2021/12/02 05:31:16;;;;;;;8.52;2.15;;;;;;;2.29;100.00;100033.53;5027268;28;20054;-78
2021/12/02 05:33:42;;;;;;;9.60;1.80;;;;;;;2.24;100.00;100037.03;5042983;28;20432;-78
2021/12/02 05:36:08;;;;;;;9.55;2.30;;;;;;;2.23;100.00;100037.28;5060630;28;20056;-77
2021/12/02 05:38:34;;;;;;;9.88;1.98;;;;;;;2.20;100.00;100035.03;5079781;28;20078;-77
2021/12/02 05:41:00;;;;;;;10.52;2.33;;;;;;;2.20;100.00;100045.97;5077964;28;20385;-77
2021/12/02 05:43:25;;;;;;;7.95;2.22;;;;;;;2.17;100.00;100051.97;5077778;28;20028;-78
2021/12/02 05:45:51;;;;;;;9.75;2.22;;;;;;;2.14;100.00;100053.28;5064480;28;20032;-78
2021/12/02 05:48:16;;;;;;;8.10;2.53;;;;;;;2.15;100.00;100054.97;5067626;28;20053;-78
2021/12/02 05:50:42;;;;;;;10.32;2.30;;;;;;;2.12;100.00;100054.66;5067062;28;20029;-78
2021/12/02 05:53:11;;;;;;;9.20;2.78;;;;;;;2.08;100.00;100058.94;5077487;28;20683;-78
2021/12/02 05:55:36;;;;;;;7.22;2.40;;;;;;;2.07;100.00;100062.78;5045886;28;20020;-78
2021/12/02 05:58:07;;;;;;;10.27;2.30;;;;;;;2.06;100.00;100056.44;5055994;28;20047;-77
2021/12/02 06:00:33;;;;;;;14.85;2.65;;;;;;;1.92;100.00;100052.38;5076209;28;20024;-77
2021/12/02 06:02:59;;;;;;;13.07;4.38;;;;;;;1.85;100.00;100058.03;5062200;28;20448;-77
2021/12/02 06:05:25;;;;;;;14.82;4.40;;;;;;;1.83;100.00;100059.34;5079280;28;20028;-77
2021/12/02 06:07:52;;;;;;;13.38;3.40;;;;;;;1.76;100.00;100065.00;5076808;28;20638;-77
2021/12/02 06:10:17;;;;;;;10.18;3.58;;;;;;;1.68;100.00;100076.34;5061732;28;20032;-77
2021/12/02 06:12:43;;;;;;;13.82;3.08;;;;;;;1.66;100.00;100078.50;5076124;28;20043;-76
2021/12/02 06:15:09;;;;;;;11.45;3.10;;;;;;;1.65;100.00;100082.31;5075490;28;20028;-77
2021/12/02 06:17:36;;;;;;;13.35;2.88;;;;;;;1.62;100.00;100082.81;5043293;28;20025;-77
2021/12/02 06:20:05;;;;;;;21.55;4.43;;;;;;;1.60;100.00;100072.09;5055582;28;20048;-77
2021/12/02 06:22:30;;;;;;;14.07;4.10;;;;;;;1.56;100.00;100074.50;5057483;28;20032;-77
2021/12/02 06:25:16;;;;;;;15.40;3.55;;;;;;;1.51;100.00;100071.66;5059587;28;20028;-77
2021/12/02 06:27:48;;;;;;;14.70;4.43;;;;;;;1.51;100.00;100085.34;5046586;28;20041;-77
2021/12/02 06:30:15;;;;;;;15.47;3.57;;;;;;;1.52;100.00;100086.16;5075408;28;20035;-77
2021/12/02 06:32:41;;;;;;;12.43;3.55;;;;;;;1.53;100.00;100090.56;5075992;28;20327;-76
2021/12/02 06:35:07;;;;;;;10.52;3.10;;;;;;;1.50;100.00;100096.53;5060749;28;20037;-77
2021/12/02 06:37:32;;;;;;;19.90;3.30;;;;;;;1.50;100.00;100102.00;5066284;28;20032;-77
2021/12/02 06:39:58;;;;;;;10.80;2.60;;;;;;;1.46;100.00;100115.34;5034102;28;20090;-77
2021/12/02 06:42:23;;;;;;;11.00;2.38;;;;;;;1.45;100.00;100118.31;5041756;28;20029;-77
2021/12/02 06:44:49;;;;;;;12.70;2.78;;;;;;;1.41;100.00;100120.72;5073082;28;20032;-78
2021/12/02 06:47:14;;;;;;;11.63;2.25;;;;;;;1.42;100.00;100133.34;5048286;28;20080;-77
2021/12/02 06:49:41;;;;;;;12.10;2.25;;;;;;;1.42;100.00;100127.00;5040528;28;20037;-77
2021/12/02 06:52:12;;;;;;;10.07;2.40;;;;;;;1.43;100.00;100139.63;5050127;28;20036;-77
2021/12/02 06:54:37;;;;;;;13.48;2.67;;;;;;;1.44;100.00;100133.09;5053532;28;20391;-77
2021/12/02 06:57:03;;;;;;;11.13;2.75;;;;;;;1.43;100.00;100140.47;5059586;28;20024;-77
2021/12/02 06:59:28;;;;;;;9.02;2.47;;;;;;;1.44;100.00;100138.56;5078394;28;20036;-77
2021/12/02 07:01:54;;;;;;;10.43;2.50;;;;;;;1.45;100.00;100146.53;5046229;28;20067;-76
2021/12/02 07:04:19;;;;;;;7.70;2.10;;;;;;;1.46;100.00;100150.94;5082858;28;20031;-77
2021/12/02 07:06:45;;;;;;;9.18;2.70;;;;;;;1.44;100.00;100157.72;5079809;28;20032;-77
2021/12/02 07:09:11;;;;;;;8.77;2.45;;;;;;;1.46;100.00;100156.41;5069699;28;20099;-75
2021/12/02 07:11:37;;;;;;;11.00;3.13;;;;;;;1.46;100.00;100153.66;5067106;28;20444;-75
2021/12/02 07:14:12;;;;;;;9.73;2.63;;;;;;;1.43;100.00;100151.41;5069108;28;20044;-75
2021/12/02 07:16:38;;;;;;;9.02;2.65;;;;;;;1.41;100.00;100158.19;5079373;28;20050;-75
2021/12/02 07:19:07;;;;;;;7.65;2.70;;;;;;;1.42;100.00;100162.59;5079419;28;20423;-76
2021/12/02 07:21:37;;;;;;;7.85;2.63;;;;;;;1.39;100.00;100149.41;5058263;28;20068;-75
2021/12/02 07:24:03;;;;;;;8.32;3.00;;;;;;;1.37;100.00;100151.56;5074046;28;20056;-78
2021/12/02 07:26:32;;;;;;;10.90;3.15;;;;;;;1.36;100.00;100155.34;5061027;28;20120;-80
2021/12/02 07:28:57;;;;;;;9.60;2.75;;;;;;;1.33;100.00;100152.00;5036937;28;20055;-81
2021/12/02 07:31:30;;;;;;;6.50;2.63;;;;;;;1.29;100.00;100159.06;5039738;28;20048;-80
2021/12/02 07:33:56;;;;;;;8.10;2.75;;;;;;;1.27;100.00;100157.63;5073076;28;20396;-81
2021/12/02 07:36:22;;;;;;;12.02;3.42;;;;;;;1.27;100.00;100163.09;5057430;28;20485;-80
2021/12/02 07:38:47;;;;;;;10.00;3.42;;;;;;;1.24;100.00;100163.59;5075342;28;20033;-80
2021/12/02 07:41:14;;;;;;;12.23;3.35;;;;;;;1.20;100.00;100162.41;5041345;28;20032;-80
2021/12/02 07:43:39;;;;;;;9.73;3.30;;;;;;;1.20;100.00;100170.59;5058397;28;20025;-81
2021/12/02 07:46:05;;;;;;;11.75;3.15;;;;;;;1.16;100.00;100183.13;5032164;28;20033;-80
2021/12/02 07:48:30;;;;;;;6.88;2.83;;;;;;;1.16;100.00;100186.66;5045543;28;20051;-80
2021/12/02 07:51:00;;;;;;;11.88;3.10;;;;;;;1.12;100.00;100199.19;5032147;28;20063;-81
2021/12/02 07:53:26;;;;;;;10.40;3.20;;;;;;;1.07;100.00;100207.25;5025028;28;20029;-80
2021/12/02 07:55:51;;;;;;;8.07;3.13;;;;;;;1.07;100.00;100202.63;5041613;28;20465;-80
2021/12/02 07:58:17;;;;;;;10.43;2.80;;;;;;;1.02;100.00;100204.41;5047469;28;20159;-80
2021/12/02 08:00:43;;;;;;;6.57;2.72;;;;;;;0.99;100.00;100205.72;5044919;28;20611;-80
2021/12/02 08:03:09;;;;;;;7.63;2.60;;;;;;;0.98;100.00;100209.53;5047060;28;20028;-80
2021/12/02 08:05:35;;;;;;;5.97;2.50;;;;;;;0.96;100.00;100206.19;5068921;28;20033;-80
2021/12/02 08:08:01;;;;;;;6.70;2.45;;;;;;;0.96;100.00;100214.41;5070246;28;20052;-80
2021/12/02 08:10:28;;;;;;;11.48;3.50;;;;;;;1.01;100.00;100213.69;5047795;28;20070;-80
2021/12/02 08:12:53;;;;;;;8.50;3.20;;;;;;;1.00;100.00;100218.31;5062967;28;20040;-81
2021/12/02 08:15:22;;;;;;;8.00;2.72;;;;;;;1.00;100.00;100221.03;5049035;28;20027;-80
2021/12/02 08:17:48;;;;;;;11.10;3.10;;;;;;;1.03;100.00;100217.84;5065672;28;20025;-80
2021/12/02 08:20:14;;;;;;;12.23;3.60;;;;;;;1.08;100.00;100220.69;5034877;28;20068;-80
2021/12/02 08:22:39;;;;;;;9.05;2.78;;;;;;;1.11;100.00;100225.72;5031244;28;20178;-80
2021/12/02 08:25:05;;;;;;;7.88;3.00;;;;;;;1.16;100.00;100233.19;5063066;28;20029;-80
2021/12/02 08:27:31;;;;;;;8.63;3.10;;;;;;;1.24;100.00;100229.25;5058131;28;20040;-80
2021/12/02 08:29:56;;;;;;;9.25;3.22;;;;;;;1.27;100.00;100229.59;5045376;28;20039;-80
2021/12/02 08:32:22;;;;;;;9.30;3.10;;;;;;;1.35;100.00;100225.66;5071259;28;20024;-81
2021/12/02 08:34:47;;;;;;;7.90;3.30;;;;;;;1.44;100.00;100229.69;5028367;28;20029;-81
2021/12/02 08:37:13;;;;;;;8.93;2.80;;;;;;;1.53;100.00;100238.34;5032313;28;20241;-81
2021/12/02 08:39:41;;;;;;;9.98;3.28;;;;;;;1.60;100.00;100228.13;5032601;28;20029;-81
2021/12/02 08:42:08;;;;;;;9.55;2.97;;;;;;;1.68;100.00;100227.75;5028656;28;20054;-81
2021/12/02 08:44:37;;;;;;;6.60;2.72;;;;;;;1.76;100.00;100235.56;5043890;28;20046;-81
2021/12/02 08:47:04;;;;;;;10.00;2.95;;;;;;;1.87;100.00;100236.63;5036330;28;20421;-82
2021/12/02 08:49:29;;;;;;;8.45;2.90;;;;;;;1.94;100.00;100234.56;5031776;28;20172;-82
2021/12/02 08:51:55;;;;;;;11.43;2.80;;;;;;;2.03;100.00;100236.91;5033101;28;20024;-82
2021/12/02 08:54:20;;;;;;;7.32;2.80;;;;;;;2.10;100.00;100238.44;5044976;28;20028;-82
2021/12/02 08:56:46;;;;;;;8.52;2.88;;;;;;;2.19;100.00;100247.09;5086201;28;20032;-82
2021/12/02 08:59:11;;;;;;;8.73;2.92;;;;;;;2.28;100.00;100248.34;5060697;28;20473;-82
2021/12/02 09:01:37;;;;;;;7.18;3.15;;;;;;;2.33;100.00;100242.97;5041191;28;20065;-84
2021/12/02 09:04:03;;;;;;;7.50;2.67;;;;;;;2.41;100.00;100239.81;5046059;28;20027;-82
2021/12/02 09:06:30;;;;;;;6.90;2.70;;;;;;;2.47;100.00;100233.34;5044777;28;20465;-81
2021/12/02 09:08:58;;;;;;;7.07;2.92;;;;;;;2.54;100.00;100240.59;5027556;28;20032;-81
2021/12/02 09:11:23;;;;;;;11.05;3.33;;;;;;;2.61;100.00;100235.78;5040251;28;20037;-80
2021/12/02 09:13:49;;;;;;;9.15;3.03;;;;;;;2.66;100.00;100244.09;5042425;28;20532;-80
2021/12/02 09:16:14;;;;;;;12.52;3.88;;;;;;;2.71;100.00;100249.66;5058078;28;20032;-80
2021/12/02 09:18:40;;;;;;;6.72;2.78;;;;;;;2.75;100.00;100250.81;5043212;28;20086;-80
2021/12/02 09:21:06;;;;;;;7.65;2.90;;;;;;;2.80;100.00;100239.09;5066034;28;20098;-80
2021/12/02 09:23:31;;;;;;;9.00;3.38;;;;;;;2.86;100.00;100252.66;5062477;28;20033;-80
2021/12/02 09:25:57;;;;;;;8.30;2.83;;;;;;;2.90;100.00;100244.78;5042579;28;20025;-80
2021/12/02 09:28:22;;;;;;;12.00;3.30;;;;;;;2.94;100.00;100248.66;5030708;28;20036;-80
2021/12/02 09:30:48;;;;;;;9.88;3.35;;;;;;;3.00;100.00;100239.41;5038009;28;20032;-80
2021/12/02 09:33:13;;;;;;;4.55;2.67;;;;;;;3.06;100.00;100251.31;5060682;28;20040;-80
2021/12/02 09:35:39;;;;;;;9.65;2.83;;;;;;;3.11;100.00;100241.25;5062007;28;20024;-80
2021/12/02 09:38:08;;;;;;;8.50;3.38;;;;;;;3.17;100.00;100241.31;5045697;28;20024;-79
2021/12/02 09:40:35;;;;;;;9.75;3.33;;;;;;;3.21;100.00;100237.84;5050696;28;20036;-79
2021/12/02 09:43:02;;;;;;;8.20;3.47;;;;;;;3.26;100.00;100226.06;5044338;28;20039;-80
2021/12/02 09:45:28;;;;;;;14.20;4.05;;;;;;;3.31;100.00;100237.13;5074567;28;20021;-80
2021/12/02 09:47:53;;;;;;;12.45;4.00;;;;;;;3.36;100.00;100228.97;5055751;28;20036;-80
2021/12/02 09:50:32;;;;;;;8.02;3.60;;;;;;;3.40;100.00;100215.56;5052425;28;20036;-80
2021/12/02 09:53:06;;;;;;;13.98;4.40;;;;;;;3.45;100.00;100215.63;5086534;28;20037;-80
2021/12/02 09:55:43;;;;;;;9.15;4.13;;;;;;;3.52;100.00;100224.53;5072753;28;20043;-80
2021/12/02 09:58:16;;;;;;;11.73;4.00;;;;;;;3.59;100.00;100219.66;5054443;28;20028;-81
2021/12/02 10:00:46;;;;;;;;;;;;;;;3.67;100.00;100213.72;5053923;28;20035;-82
2021/12/02 10:05:56;;;;;;;11.73;3.92;;;;;;;3.81;100.00;100215.00;5051324;28;20131;-82
2021/12/02 10:08:23;;;;;;;12.48;4.15;;;;;;;3.89;100.00;100221.13;5060739;28;20074;-82
2021/12/02 10:10:59;;;;;;;11.15;4.35;;;;;;;3.98;100.00;100222.34;5075934;28;20484;-82
2021/12/02 10:16:07;;;;;;;10.13;3.72;;;;;;;4.15;100.00;100223.09;5060846;28;20016;-83
2021/12/02 10:18:38;;;;;;;;;;;;;;;4.22;100.00;100237.44;5054281;28;20134;-82
2021/12/02 10:21:17;;;;;;;6.85;3.75;;;;;;;4.30;100.00;100238.09;5075294;28;19931;-83
2021/12/02 10:23:47;;;;;;;9.45;3.63;;;;;;;4.37;100.00;100234.00;5043608;28;20054;-82
2021/12/02 10:26:13;;;;;;;9.23;3.75;;;;;;;4.44;100.00;100240.16;5072163;28;20667;-82
2021/12/02 10:28:42;;;;;;;9.82;3.50;;;;;;;4.51;100.00;100234.44;5057799;28;20024;-83
2021/12/02 10:31:08;;;;;;;7.10;3.20;;;;;;;4.58;100.00;100234.22;5071776;28;20033;-83
2021/12/02 10:33:35;;;;;;;12.95;4.32;;;;;;;4.64;100.00;100233.19;5049598;28;20444;-82
2021/12/02 10:36:02;;;;;;;13.90;3.70;;;;;;;4.70;100.00;100240.38;5084809;28;20036;-83
2021/12/02 10:38:35;;;;;;;10.25;3.33;;;;;;;4.77;100.00;100242.94;5038202;28;20116;-82
2021/12/02 10:41:03;;;;;;;10.48;3.92;;;;;;;4.82;100.00;100245.69;5078633;28;20047;-82
2021/12/02 10:43:28;;;;;;;12.18;5.72;;;;;;;4.88;100.00;100252.94;5050193;28;20377;-83
2021/12/02 10:46:12;;;;;;;11.25;4.82;;;;;;;4.92;100.00;100251.28;5066940;28;20098;-82
2021/12/02 10:48:48;;;;;;;11.77;4.78;;;;;;;4.93;100.00;100258.44;5075332;28;20036;-85
2021/12/02 10:51:44;;;;;;;10.77;4.70;;;;;;;5.00;100.00;100261.00;5051576;28;20020;-85
2021/12/02 10:54:13;;;;;;;14.48;4.50;;;;;;;4.99;100.00;100257.41;5070356;28;20064;-86
2021/12/02 10:56:40;;;;;;;11.65;4.55;;;;;;;5.02;100.00;100262.41;5044729;28;20040;-85
2021/12/02 10:59:52;;;;;;;9.63;3.90;;;;;;;5.03;100.00;100279.75;5042616;28;20071;-83
2021/12/02 11:02:18;;;;;;;10.60;4.47;;;;;;;5.02;100.00;100280.84;5012535;28;20045;-83
2021/12/02 11:04:56;;;;;;;12.80;3.95;;;;;;;5.03;100.00;100280.56;5051265;28;20074;-82
2021/12/02 11:07:40;;;;;;;8.23;3.30;;;;;;;5.02;100.00;100267.91;5074261;28;20025;-84
2021/12/02 11:10:11;;;;;;;10.43;3.55;;;;;;;4.99;100.00;100268.44;5043629;28;20115;-83
2021/12/02 11:12:41;;;;;;;9.98;3.05;;;;;;;4.94;100.00;100251.88;5046279;28;20024;-82
2021/12/02 11:15:07;;;;;;;9.45;2.83;;;;;;;4.94;100.00;100251.88;5059867;28;20043;-83
2021/12/02 11:17:44;;;;;;;10.57;3.03;;;;;;;4.91;100.00;100244.16;5071682;28;20063;-82
2021/12/02 11:20:12;;;;;;;5.32;2.70;;;;;;;4.88;100.00;100230.91;5060591;28;20039;-82
2021/12/02 11:22:37;;;;;;;10.27;3.00;;;;;;;4.86;100.00;100235.84;5057264;28;20039;-83
2021/12/02 11:25:04;;;;;;;7.88;2.90;;;;;;;4.84;100.00;100229.75;5057989;28;20032;-82
2021/12/02 11:27:38;;;;;;;9.23;3.17;;;;;;;4.82;100.00;100237.44;5061094;28;20044;-81
2021/12/02 11:30:12;;;;;;;8.13;3.17;;;;;;;4.82;100.00;100227.28;5051897;28;21028;-81
2021/12/02 11:32:48;;;;;;;7.65;2.42;;;;;;;4.81;100.00;100230.28;5075211;28;20473;-82
2021/12/02 11:35:37;;;;;;;8.23;2.78;;;;;;;4.83;100.00;100228.94;5068856;28;20019;-81
2021/12/02 11:38:21;;;;;;;7.20;2.60;;;;;;;4.84;100.00;100230.59;5056499;28;20036;-82
2021/12/02 11:40:57;;;;;;;9.77;2.65;;;;;;;4.86;100.00;100211.06;5056520;28;20040;-83
2021/12/02 11:43:30;;;;;;;10.27;2.92;;;;;;;4.87;100.00;100213.56;5040029;28;20397;-83